Time;durP1;ratioP1;P1;durP2;ratioP2;P2;SDS_P1;SDS_P2;PMS_P1;PMS_P2;Temp;Humidity;BMP_temperature;BMP_pressure;BME280_temperature;BME280_humidity;BME280_pressure;Samples;Min_cycle;Max_cycle;Signal;HPM_P1;HPM_P2
2021/12/24 00:01:18;;;;;;;18.05;7.82;;;-13.00;94.90;;;;;;5021568;28;20127;-90
2021/12/24 00:03:44;;;;;;;17.98;8.48;;;-13.10;94.40;;;;;;5004314;28;20091;-93
2021/12/24 00:06:11;;;;;;;23.45;10.75;;;-13.10;94.70;;;;;;5022489;28;20060;-92
2021/12/24 00:08:38;;;;;;;24.02;10.23;;;-13.10;94.80;;;;;;5003050;28;20465;-92
2021/12/24 00:11:05;;;;;;;22.00;10.07;;;-13.10;95.00;;;;;;5002849;28;20105;-91
2021/12/24 00:13:39;;;;;;;22.00;9.85;;;-13.10;95.20;;;;;;5006920;28;20029;-94
2021/12/24 00:16:18;;;;;;;21.02;9.27;;;-13.10;94.80;;;;;;5008131;28;20053;-93
2021/12/24 00:37:23;;;;;;;25.67;13.32;;;-12.90;94.90;;;;;;5019811;28;20048;-92
2021/12/24 00:40:00;;;;;;;28.65;13.10;;;-12.90;95.00;;;;;;5001579;28;20050;-92
2021/12/24 00:42:26;;;;;;;25.73;12.73;;;-12.90;95.20;;;;;;5019390;28;20124;-91
2021/12/24 00:44:51;;;;;;;22.95;12.15;;;-12.90;95.30;;;;;;5002037;28;20034;-91
2021/12/24 00:47:17;;;;;;;23.55;11.98;;;-12.90;95.10;;;;;;5018906;28;20045;-92
2021/12/24 00:49:43;;;;;;;25.45;10.77;;;-12.80;95.50;;;;;;5000985;28;20038;-91
2021/12/24 00:55:06;;;;;;;21.00;10.10;;;-12.70;96.00;;;;;;5019107;28;20397;-91
2021/12/24 00:57:34;;;;;;;21.42;10.20;;;-12.70;96.00;;;;;;5002319;28;20377;-92
2021/12/24 01:00:00;;;;;;;26.13;10.02;;;-12.60;95.60;;;;;;5001204;28;20037;-93
2021/12/24 01:02:26;;;;;;;20.48;9.18;;;-12.60;95.70;;;;;;5001169;28;20038;-93
2021/12/24 01:04:51;;;;;;;21.98;8.88;;;-12.50;95.90;;;;;;5000605;28;20476;-91
2021/12/24 01:07:17;;;;;;;19.73;8.65;;;-12.50;95.70;;;;;;5000371;28;20092;-91
2021/12/24 01:09:43;;;;;;;19.13;8.57;;;-12.50;95.80;;;;;;5000082;28;20045;-91
2021/12/24 01:12:09;;;;;;;18.42;8.95;;;-12.50;95.80;;;;;;5017622;28;20038;-90
2021/12/24 01:14:35;;;;;;;17.67;8.60;;;-12.50;95.60;;;;;;5000914;28;20514;-91
2021/12/24 01:17:14;;;;;;;23.55;9.43;;;-12.50;96.00;;;;;;4984352;28;20034;-91
2021/12/24 01:19:43;;;;;;;19.52;8.65;;;-12.40;96.50;;;;;;5010642;28;20022;-86
2021/12/24 01:24:47;;;;;;;20.90;9.50;;;-12.30;96.10;;;;;;5036944;28;20081;-90
2021/12/24 01:37:49;;;;;;;17.58;8.40;;;-12.30;96.30;;;;;;5017965;28;20042;-91
2021/12/24 01:38:15;;;;;;;18.33;7.18;;;-12.30;95.60;;;;;;5017881;28;20037;-91
2021/12/24 01:43:24;;;;;;;15.38;7.05;;;-12.30;95.70;;;;;;5017585;28;20054;-92
2021/12/24 01:45:52;;;;;;;13.82;6.68;;;-12.90;95.20;;;;;;4999734;28;20033;-91
2021/12/24 01:48:19;;;;;;;12.60;6.68;;;-12.30;95.00;;;;;;5017787;28;20042;-90
2021/12/24 01:50:47;;;;;;;13.25;7.25;;;-12.30;95.30;;;;;;4998746;28;20045;-90
2021/12/24 01:53:15;;;;;;;13.98;6.53;;;-12.30;95.30;;;;;;5016434;28;20030;-91
2021/12/24 01:55:42;;;;;;;15.45;7.72;;;-12.20;95.70;;;;;;5002932;28;20064;-89
2021/12/24 01:58:08;;;;;;;15.60;7.65;;;;;;;;;;5017781;28;20042;-89
2021/12/24 02:00:40;;;;;;;17.05;7.40;;;-12.20;95.70;;;;;;5001467;28;20429;-90
2021/12/24 02:03:08;;;;;;;13.95;7.00;;;-12.20;95.60;;;;;;5017067;28;20038;-88
2021/12/24 02:05:35;;;;;;;16.90;7.65;;;-12.20;96.10;;;;;;5017490;28;20025;-90
2021/12/24 02:08:02;;;;;;;17.75;7.57;;;-12.10;96.20;;;;;;4999953;28;20072;-90
2021/12/24 02:10:29;;;;;;;19.30;8.55;;;-12.10;96.10;;;;;;5006514;28;20461;-91
2021/12/24 02:12:55;;;;;;;18.88;8.68;;;-12.10;96.20;;;;;;5008475;28;20110;-92
2021/12/24 02:18:17;;;;;;;54.88;16.50;;;-12.10;96.20;;;;;;5030662;28;20038;-92
2021/12/24 02:28:57;;;;;;;44.70;15.32;;;-12.10;96.30;;;;;;5038347;28;20045;-92
2021/12/24 02:31:26;;;;;;;33.88;12.52;;;-12.00;96.60;;;;;;5031963;28;20041;-93
2021/12/24 02:33:53;;;;;;;31.58;12.95;;;-12.00;96.30;;;;;;5018623;28;20461;-91
2021/12/24 02:36:21;;;;;;;32.63;11.23;;;-12.00;96.40;;;;;;5000245;28;20034;-89
2021/12/24 02:38:47;;;;;;;29.30;11.50;;;;;;;;;;5010581;28;20038;-92
2021/12/24 02:41:13;;;;;;;23.15;10.27;;;-12.00;96.40;;;;;;5003363;28;20034;-91
2021/12/24 02:43:41;;;;;;;22.70;9.63;;;-11.90;96.60;;;;;;5004708;28;20045;-93
2021/12/24 02:46:11;;;;;;;23.52;10.15;;;-11.90;97.00;;;;;;4988009;28;20038;-91
2021/12/24 02:49:03;;;;;;;;;;;-11.90;97.00;;;;;;5004277;28;20396;-91
2021/12/24 02:54:16;;;;;;;21.52;9.25;;;-11.80;97.70;;;;;;5021145;28;20089;-89
2021/12/24 02:56:51;;;;;;;22.08;10.25;;;-11.70;97.20;;;;;;4999901;28;20034;-91
2021/12/24 02:59:19;;;;;;;21.40;9.90;;;-11.70;97.00;;;;;;5002780;28;20038;-90
2021/12/24 03:01:47;;;;;;;19.30;8.93;;;-11.60;96.90;;;;;;5020188;28;20055;-93
2021/12/24 03:04:13;;;;;;;16.08;8.68;;;-11.60;96.70;;;;;;5004481;28;20053;-92
2021/12/24 03:06:42;;;;;;;17.45;8.25;;;-11.60;96.40;;;;;;4984152;28;20038;-92
2021/12/24 03:09:12;;;;;;;18.42;8.15;;;-11.60;96.50;;;;;;4984297;28;20039;-91
2021/12/24 03:11:38;;;;;;;19.00;8.70;;;-11.60;96.70;;;;;;5001170;28;20038;-91
2021/12/24 03:14:05;;;;;;;20.15;8.50;;;-11.60;96.50;;;;;;4984632;28;20085;-93
2021/12/24 03:16:32;;;;;;;20.42;8.18;;;-11.50;96.20;;;;;;4995530;28;20039;-93
2021/12/24 03:18:58;;;;;;;19.55;8.45;;;-11.50;96.00;;;;;;4987420;28;20197;-93
2021/12/24 03:21:46;;;;;;;14.82;7.75;;;-11.50;96.00;;;;;;5003594;28;20106;-91
2021/12/24 03:26:46;;;;;;;24.67;10.68;;;-11.50;95.50;;;;;;5026075;28;20053;-90
2021/12/24 03:29:15;;;;;;;22.35;9.45;;;-11.60;95.50;;;;;;5003531;28;20491;-92
2021/12/24 03:31:41;;;;;;;27.50;10.50;;;-11.60;95.90;;;;;;5005681;28;20064;-91
2021/12/24 03:34:11;;;;;;;30.13;10.88;;;-11.60;95.60;;;;;;5024263;28;20044;-90
2021/12/24 03:36:37;;;;;;;30.80;10.25;;;-11.60;95.10;;;;;;5023990;28;20030;-93
2021/12/24 03:39:06;;;;;;;36.67;11.23;;;-11.60;94.70;;;;;;5009838;28;20042;-91
2021/12/24 03:41:34;;;;;;;31.55;10.10;;;-11.60;95.00;;;;;;4989418;28;20038;-94
2021/12/24 03:44:00;;;;;;;32.63;10.85;;;-11.60;94.80;;;;;;4983824;28;20077;-91
2021/12/24 03:46:44;;;;;;;37.75;13.05;;;-11.60;95.00;;;;;;4983519;28;20053;-91
2021/12/24 03:49:19;;;;;;;46.33;15.40;;;-11.60;95.10;;;;;;4982895;28;20106;-92
2021/12/24 03:51:58;;;;;;;47.28;16.48;;;-11.60;95.10;;;;;;5001254;28;20026;-92
2021/12/24 03:57:07;;;;;;;48.88;16.73;;;-11.60;95.80;;;;;;5002757;28;20057;-92
2021/12/24 03:59:33;;;;;;;36.45;13.10;;;-11.50;96.30;;;;;;5000943;28;20464;-90
2021/12/24 04:01:59;;;;;;;39.38;17.70;;;-11.50;96.50;;;;;;5001023;28;20042;-92
2021/12/24 04:04:24;;;;;;;44.65;23.45;;;-11.40;96.70;;;;;;4984193;28;20122;-92
2021/12/24 04:06:50;;;;;;;37.33;19.90;;;-10.80;96.40;;;;;;4985347;28;20100;-90
2021/12/24 04:09:16;;;;;;;32.92;16.02;;;-11.20;96.10;;;;;;4994747;28;20061;-91
2021/12/24 04:11:42;;;;;;;34.72;16.45;;;-11.10;96.20;;;;;;4992903;28;20038;-90
2021/12/24 04:14:07;;;;;;;33.50;15.82;;;-11.00;95.80;;;;;;4992210;28;20031;-91
2021/12/24 04:16:34;;;;;;;73.60;20.70;;;-10.90;95.70;;;;;;5002004;28;20038;-91
2021/12/24 04:26:59;;;;;;;26.80;10.82;;;-10.80;94.80;;;;;;5001178;28;20093;-91
2021/12/24 04:29:27;;;;;;;29.65;10.95;;;-8.00;95.60;;;;;;4999086;28;20131;-90
2021/12/24 04:32:07;;;;;;;34.13;12.40;;;-10.70;94.80;;;;;;5000579;28;20061;-92
2021/12/24 04:34:35;;;;;;;38.45;14.50;;;-10.60;94.70;;;;;;4981528;28;20041;-91
2021/12/24 05:04:34;;;;;;;36.70;15.85;;;-10.00;93.20;;;;;;5017658;28;20045;-91
2021/12/24 05:07:21;;;;;;;27.35;12.38;;;-10.00;93.20;;;;;;5007738;28;20038;-89
2021/12/24 05:09:47;;;;;;;31.80;14.40;;;-9.90;93.30;;;;;;5014744;28;20046;-91
2021/12/24 05:12:13;;;;;;;34.53;15.48;;;-9.90;93.50;;;;;;5006647;28;20083;-91
2021/12/24 05:14:38;;;;;;;38.35;15.18;;;-9.80;93.60;;;;;;5009089;28;20038;-94
2021/12/24 05:22:30;;;;;;;33.95;14.13;;;-9.70;93.60;;;;;;5018353;28;20049;-90
2021/12/24 05:24:57;;;;;;;36.40;14.93;;;-9.70;93.40;;;;;;5001222;28;20038;-88
2021/12/24 05:27:23;;;;;;;32.78;13.48;;;-9.60;93.40;;;;;;5000515;28;20033;-93
2021/12/24 05:29:51;;;;;;;36.00;15.23;;;-9.60;93.30;;;;;;5019669;28;20038;-93
2021/12/24 05:32:16;;;;;;;38.00;16.42;;;-9.50;93.50;;;;;;4999600;28;20121;-85
2021/12/24 05:34:44;;;;;;;34.05;14.13;;;-9.50;93.20;;;;;;4986016;28;20061;-89
2021/12/24 05:37:10;;;;;;;28.95;13.20;;;-9.40;93.20;;;;;;4968148;28;20128;-92
2021/12/24 05:39:37;;;;;;;28.67;12.10;;;-9.40;93.30;;;;;;5018261;28;20034;-90
2021/12/24 05:42:04;;;;;;;28.08;11.90;;;-9.40;93.30;;;;;;5019803;28;20081;-92
2021/12/24 05:44:32;;;;;;;35.45;14.60;;;-9.30;93.40;;;;;;5024252;28;20036;-89
2021/12/24 05:46:58;;;;;;;32.38;15.00;;;-9.30;93.40;;;;;;5010976;28;20048;-88
2021/12/24 05:49:24;;;;;;;31.50;16.80;;;-9.30;93.40;;;;;;5009775;28;20042;-90
2021/12/24 05:51:50;;;;;;;49.20;20.88;;;-9.20;93.60;;;;;;5022743;28;20068;-89
2021/12/24 05:54:17;;;;;;;48.55;21.42;;;-9.10;93.30;;;;;;5015859;28;20030;-89
2021/12/24 05:56:44;;;;;;;62.67;27.70;;;-9.10;93.40;;;;;;5002384;28;20037;-89
2021/12/24 05:59:10;;;;;;;71.32;27.90;;;-9.00;93.30;;;;;;5003481;28;20053;-90
2021/12/24 06:01:36;;;;;;;87.18;34.58;;;-9.00;93.40;;;;;;5001643;28;20030;-90
2021/12/24 06:04:03;;;;;;;72.53;28.98;;;-8.90;93.60;;;;;;5018812;28;20022;-90
2021/12/24 06:06:29;;;;;;;55.92;23.85;;;-8.90;93.10;;;;;;5000968;28;20542;-92
2021/12/24 06:08:55;;;;;;;46.25;20.92;;;-8.70;92.30;;;;;;5018371;28;20038;-89
2021/12/24 06:11:24;;;;;;;38.67;20.02;;;-8.80;92.10;;;;;;4998915;28;20042;-91
2021/12/24 06:13:53;;;;;;;44.67;22.42;;;-8.80;91.70;;;;;;5017775;28;20037;-91
2021/12/24 06:16:19;;;;;;;51.90;22.30;;;-8.80;92.00;;;;;;5018413;28;20096;-90
2021/12/24 06:19:08;;;;;;;55.97;22.58;;;-8.90;92.20;;;;;;5017790;28;20120;-87
2021/12/24 06:21:34;;;;;;;58.17;21.83;;;-8.80;92.20;;;;;;4999431;28;20034;-89
2021/12/24 06:24:00;;;;;;;42.03;19.05;;;-8.80;92.30;;;;;;5000890;28;20034;-84
2021/12/24 06:26:27;;;;;;;41.53;18.80;;;-8.80;92.00;;;;;;5016552;28;20544;-85
2021/12/24 06:28:53;;;;;;;47.88;20.08;;;-8.80;92.30;;;;;;4998857;28;20073;-85
2021/12/24 06:31:18;;;;;;;50.22;20.52;;;-8.80;92.20;;;;;;5016258;28;20034;-84
2021/12/24 06:33:44;;;;;;;43.97;20.23;;;-8.80;92.00;;;;;;4997780;28;20453;-85
2021/12/24 06:36:12;;;;;;;41.63;19.77;;;-8.70;92.20;;;;;;4998457;28;20036;-87
2021/12/24 06:38:39;;;;;;;31.02;15.32;;;-8.70;92.00;;;;;;5000435;28;20062;-85
2021/12/24 06:41:09;;;;;;;32.10;14.98;;;-8.60;91.80;;;;;;5016263;28;20057;-88
2021/12/24 06:43:36;;;;;;;35.90;17.70;;;-8.70;91.70;;;;;;5017364;28;20117;-90
2021/12/24 06:46:09;;;;;;;34.10;15.55;;;-8.60;92.10;;;;;;4997224;28;20042;-87
2021/12/24 06:48:35;;;;;;;41.80;18.23;;;-8.70;92.00;;;;;;4998411;28;20442;-89
2021/12/24 06:51:01;;;;;;;36.28;16.67;;;-8.60;91.80;;;;;;4999683;28;20038;-85
2021/12/24 06:53:27;;;;;;;31.42;15.60;;;-8.50;91.90;;;;;;5016269;28;20086;-86
2021/12/24 06:55:52;;;;;;;30.20;15.18;;;-8.50;91.90;;;;;;4999328;28;20061;-85
2021/12/24 06:58:18;;;;;;;36.03;16.65;;;-8.40;91.80;;;;;;5023973;28;20047;-82
2021/12/24 07:00:44;;;;;;;47.60;20.00;;;-8.40;92.10;;;;;;5033019;28;20068;-83
2021/12/24 07:03:10;;;;;;;41.20;18.85;;;-8.40;92.00;;;;;;5016436;28;20451;-86
2021/12/24 07:05:36;;;;;;;48.08;20.38;;;-8.30;91.70;;;;;;5016932;28;20045;-85
2021/12/24 07:08:03;;;;;;;67.82;26.33;;;-8.20;91.90;;;;;;5000570;28;20132;-85
2021/12/24 07:10:29;;;;;;;65.30;25.98;;;-8.20;91.90;;;;;;5018583;28;20037;-86
2021/12/24 07:12:57;;;;;;;70.18;25.05;;;-8.10;92.20;;;;;;5017874;28;20427;-86
2021/12/24 07:15:25;;;;;;;59.45;22.65;;;-8.10;92.20;;;;;;5017194;28;20056;-86
2021/12/24 07:17:50;;;;;;;48.20;18.15;;;-8.10;92.40;;;;;;5016055;28;20033;-84
2021/12/24 07:20:16;;;;;;;50.28;19.65;;;-8.00;92.00;;;;;;5015939;28;20034;-87
2021/12/24 07:22:42;;;;;;;51.17;20.08;;;-7.90;91.70;;;;;;5033238;28;20119;-85
2021/12/24 07:25:08;;;;;;;57.85;19.08;;;-7.90;91.80;;;;;;5018084;28;20029;-85
2021/12/24 07:27:36;;;;;;;84.28;29.88;;;-7.80;91.40;;;;;;5020984;28;20025;-85
2021/12/24 07:30:04;;;;;;;77.30;28.52;;;-7.80;91.60;;;;;;5017423;28;20049;-84
2021/12/24 07:32:30;;;;;;;80.05;29.10;;;-7.70;91.30;;;;;;5035773;28;20069;-85
2021/12/24 07:34:55;;;;;;;81.57;28.50;;;-7.70;90.90;;;;;;5018801;28;20060;-85
2021/12/24 07:37:21;;;;;;;61.55;24.10;;;-7.60;90.90;;;;;;5036136;28;20533;-85
2021/12/24 07:39:47;;;;;;;57.00;23.95;;;-7.60;90.70;;;;;;5019060;28;20488;-85
2021/12/24 07:42:12;;;;;;;89.57;31.45;;;-7.50;90.50;;;;;;5018415;28;20056;-85
2021/12/24 07:44:38;;;;;;;82.63;30.90;;;-7.50;90.70;;;;;;5037342;28;20635;-86
2021/12/24 07:47:07;;;;;;;60.55;22.95;;;-7.40;91.00;;;;;;5038307;28;20042;-85
2021/12/24 07:49:39;;;;;;;48.63;18.75;;;-7.40;91.20;;;;;;5038171;28;20120;-85
2021/12/24 07:52:09;;;;;;;31.55;12.88;;;-7.30;91.30;;;;;;5038539;28;20034;-86
2021/12/24 07:54:38;;;;;;;33.78;13.60;;;-7.30;91.00;;;;;;5020365;28;20040;-86
2021/12/24 07:57:04;;;;;;;28.80;12.23;;;-7.30;91.10;;;;;;5038894;28;20044;-85
2021/12/24 07:59:30;;;;;;;23.88;10.48;;;-7.20;91.10;;;;;;5020454;28;20034;-87
2021/12/24 08:01:57;;;;;;;26.25;11.35;;;-7.20;91.60;;;;;;5022155;28;20092;-86
2021/12/24 08:04:23;;;;;;;22.80;10.55;;;-7.10;91.60;;;;;;5020458;28;20034;-86
2021/12/24 08:06:50;;;;;;;18.67;8.85;;;-7.00;91.60;;;;;;5020717;28;20038;-86
2021/12/24 08:09:15;;;;;;;27.08;11.57;;;-6.90;91.70;;;;;;5021595;28;20549;-86
2021/12/24 08:11:44;;;;;;;23.67;9.60;;;-6.80;91.40;;;;;;5022441;28;20033;-85
2021/12/24 08:14:10;;;;;;;25.60;10.40;;;-6.80;91.70;;;;;;5019996;28;20037;-86
2021/12/24 08:16:36;;;;;;;21.23;9.77;;;-6.70;91.70;;;;;;5020178;28;20034;-86
2021/12/24 08:19:03;;;;;;;32.38;12.13;;;-6.70;92.40;;;;;;5019326;28;20037;-85
2021/12/24 08:21:29;;;;;;;37.47;16.05;;;-6.60;92.10;;;;;;5037742;28;20040;-87
2021/12/24 08:23:55;;;;;;;35.40;14.05;;;-6.60;92.30;;;;;;5020328;28;20044;-87
2021/12/24 08:26:21;;;;;;;30.80;12.75;;;-6.60;92.60;;;;;;5037418;28;20108;-86
2021/12/24 08:28:48;;;;;;;24.52;11.52;;;-6.60;93.20;;;;;;5019107;28;20551;-85
2021/12/24 08:31:14;;;;;;;31.15;13.00;;;-6.60;93.30;;;;;;5019244;28;20061;-85
2021/12/24 08:33:39;;;;;;;25.13;10.68;;;-6.60;93.60;;;;;;5037246;28;20069;-86
2021/12/24 08:36:07;;;;;;;26.45;10.90;;;-6.50;93.70;;;;;;5037660;28;20367;-85
2021/12/24 08:38:33;;;;;;;34.13;12.68;;;-6.50;94.00;;;;;;5020896;28;20060;-86
2021/12/24 08:40:59;;;;;;;33.88;12.77;;;-6.50;94.20;;;;;;5036789;28;20049;-85
2021/12/24 08:43:25;;;;;;;32.47;13.27;;;-6.50;95.20;;;;;;5019921;28;20033;-86
2021/12/24 08:45:50;;;;;;;42.25;16.92;;;-6.50;94.90;;;;;;5020265;28;20044;-86
2021/12/24 08:48:16;;;;;;;49.22;18.58;;;-6.40;95.40;;;;;;5020702;28;20029;-86
2021/12/24 08:50:42;;;;;;;47.25;19.15;;;-6.40;96.00;;;;;;5037429;28;20083;-86
2021/12/24 08:53:08;;;;;;;58.15;21.63;;;-6.40;96.40;;;;;;5018619;28;20040;-87
2021/12/24 08:55:34;;;;;;;58.95;22.90;;;-6.30;96.80;;;;;;5019477;28;20455;-86
2021/12/24 08:58:02;;;;;;;72.93;28.08;;;-6.30;97.00;;;;;;5037597;28;20033;-86
2021/12/24 09:00:29;;;;;;;65.07;25.75;;;-6.10;97.40;;;;;;5038216;28;20038;-85
2021/12/24 09:02:56;;;;;;;49.42;19.13;;;-6.10;97.30;;;;;;5042145;28;20037;-86
2021/12/24 09:05:23;;;;;;;46.25;19.63;;;-6.10;97.70;;;;;;5024176;28;20034;-87
2021/12/24 09:07:49;;;;;;;40.88;17.50;;;-5.90;97.10;;;;;;5040539;28;20040;-87
2021/12/24 09:10:15;;;;;;;46.97;19.50;;;-5.90;97.20;;;;;;5036190;28;20475;-87
2021/12/24 09:12:43;;;;;;;38.65;16.92;;;-5.90;97.00;;;;;;5018843;28;20034;-85
2021/12/24 09:15:10;;;;;;;32.15;13.13;;;-5.80;97.10;;;;;;5036162;28;20148;-86
2021/12/24 09:17:36;;;;;;;26.77;11.45;;;-5.80;97.40;;;;;;5038086;28;20033;-85
2021/12/24 09:20:03;;;;;;;23.73;11.63;;;-5.70;97.10;;;;;;5038186;28;20037;-85
2021/12/24 09:22:32;;;;;;;23.27;11.35;;;-5.70;96.40;;;;;;5020670;28;20065;-87
2021/12/24 09:25:01;;;;;;;29.90;13.77;;;-5.60;96.20;;;;;;5041792;28;20026;-85
2021/12/24 09:27:27;;;;;;;30.45;12.38;;;-5.60;95.80;;;;;;5020456;28;20030;-86
2021/12/24 09:29:53;;;;;;;27.75;11.90;;;-5.60;95.90;;;;;;5019525;28;20356;-84
2021/12/24 09:32:19;;;;;;;37.30;14.70;;;-5.50;95.50;;;;;;5037810;28;20121;-86
2021/12/24 09:34:45;;;;;;;36.80;15.23;;;-5.50;95.50;;;;;;5037165;28;20034;-85
2021/12/24 09:37:11;;;;;;;33.85;15.57;;;-5.50;95.50;;;;;;5019156;28;20033;-85
2021/12/24 09:39:36;;;;;;;31.17;14.63;;;-5.50;96.50;;;;;;5018412;28;20096;-85
2021/12/24 09:42:03;;;;;;;32.83;15.50;;;-5.50;96.40;;;;;;5037049;28;20060;-85
2021/12/24 09:44:29;;;;;;;38.75;16.50;;;-5.50;96.80;;;;;;5019238;28;20037;-85
2021/12/24 09:46:56;;;;;;;39.85;17.85;;;-5.50;96.90;;;;;;5018554;28;20068;-84
2021/12/24 09:49:23;;;;;;;46.05;19.27;;;-5.50;97.30;;;;;;5018551;28;20056;-85
2021/12/24 09:51:51;;;;;;;62.33;23.58;;;-5.40;97.20;;;;;;5036530;28;20447;-85
2021/12/24 09:54:23;;;;;;;66.18;24.65;;;-5.40;97.50;;;;;;5019178;28;20113;-85
2021/12/24 09:56:50;;;;;;;71.75;27.00;;;-5.30;97.80;;;;;;5019000;28;20034;-85
2021/12/24 09:59:17;;;;;;;63.42;23.98;;;-5.40;97.00;;;;;;5036384;28;20471;-86
2021/12/24 10:02:04;;;;;;;65.78;22.85;;;-5.30;98.30;;;;;;5036446;28;20029;-85
2021/12/24 10:04:32;;;;;;;50.35;20.92;;;-5.30;98.30;;;;;;5019692;28;20033;-86
2021/12/24 10:07:03;;;;;;;45.95;20.65;;;-5.30;98.50;;;;;;5020891;28;20097;-86
2021/12/24 10:09:46;;;;;;;38.42;16.48;;;-5.20;98.70;;;;;;5021286;28;20052;-86
2021/12/24 10:12:19;;;;;;;61.20;24.27;;;-5.10;98.30;;;;;;5039725;28;20052;-85
2021/12/24 10:14:53;;;;;;;58.88;23.20;;;-5.00;97.40;;;;;;5036126;28;20034;-87
2021/12/24 10:17:22;;;;;;;55.05;20.00;;;-4.90;96.10;;;;;;5035679;28;20050;-86
2021/12/24 10:19:58;;;;;;;62.13;23.98;;;-4.90;96.20;;;;;;5018228;28;20072;-87
2021/12/24 10:22:24;;;;;;;54.58;21.70;;;-4.90;96.20;;;;;;5036788;28;20091;-86
2021/12/24 10:25:12;;;;;;;45.13;19.25;;;-4.90;97.30;;;;;;5021484;28;20040;-84
2021/12/24 10:27:38;;;;;;;56.72;21.92;;;-4.90;97.10;;;;;;5018240;28;20033;-84
2021/12/24 10:30:26;;;;;;;57.83;23.48;;;-4.90;97.70;;;;;;5035652;28;20375;-85
2021/12/24 10:32:55;;;;;;;55.47;21.55;;;-4.90;97.50;;;;;;5019215;28;20064;-86
2021/12/24 10:35:26;;;;;;;33.75;15.68;;;-4.90;98.40;;;;;;5036236;28;20092;-85
2021/12/24 10:38:11;;;;;;;;;;;-4.80;98.30;;;;;;5017920;28;20033;-85
2021/12/24 10:40:47;;;;;;;29.95;13.23;;;-4.90;97.10;;;;;;5017293;28;19976;-85
2021/12/24 10:43:24;;;;;;;35.90;16.63;;;-4.80;98.80;;;;;;5035688;28;20093;-85
2021/12/24 10:46:11;;;;;;;45.90;20.77;;;-4.80;99.20;;;;;;5017439;28;20095;-85
2021/12/24 10:48:45;;;;;;;31.65;15.57;;;-4.80;97.80;;;;;;5035263;28;20041;-86
2021/12/24 10:51:20;;;;;;;31.25;17.23;;;-4.80;99.60;;;;;;5035534;28;20025;-85
2021/12/24 10:54:02;;;;;;;50.88;27.75;;;-4.90;99.90;;;;;;5016841;28;20070;-85
2021/12/24 10:56:28;;;;;;;45.75;28.00;;;-4.80;99.90;;;;;;5034639;28;20044;-85
2021/12/24 10:58:54;;;;;;;49.28;28.10;;;-4.80;99.90;;;;;;5018365;28;20387;-84
2021/12/24 11:01:20;;;;;;;36.47;19.85;;;-4.70;99.90;;;;;;5039403;28;20033;-85
2021/12/24 11:03:46;;;;;;;45.08;20.55;;;-4.70;99.90;;;;;;5021264;28;20120;-85
2021/12/24 11:06:15;;;;;;;45.70;22.25;;;-4.60;99.90;;;;;;5039343;28;20029;-85
2021/12/24 11:08:41;;;;;;;41.60;19.85;;;-4.50;99.90;;;;;;5021629;28;20045;-85
2021/12/24 11:11:11;;;;;;;38.67;17.52;;;-4.50;99.90;;;;;;5040410;28;20460;-84
2021/12/24 11:13:40;;;;;;;37.95;18.15;;;-4.40;99.90;;;;;;5039391;28;20060;-86
2021/12/24 11:16:09;;;;;;;41.45;18.70;;;-4.40;99.90;;;;;;5022733;28;20427;-85
2021/12/24 11:18:43;;;;;;;37.35;16.83;;;-4.40;99.90;;;;;;5038704;28;20108;-86
2021/12/24 11:21:10;;;;;;;32.15;16.90;;;-4.30;99.60;;;;;;5039052;28;20068;-85
2021/12/24 11:23:39;;;;;;;30.77;14.95;;;-4.30;99.10;;;;;;5021525;28;20065;-86
2021/12/24 11:26:20;;;;;;;30.88;15.57;;;-4.30;99.10;;;;;;5021445;28;20033;-87
2021/12/24 11:28:47;;;;;;;40.67;20.25;;;-4.40;98.50;;;;;;5021216;28;20037;-87
2021/12/24 11:31:15;;;;;;;37.42;20.40;;;-4.30;99.90;;;;;;5039712;28;20420;-87
2021/12/24 11:33:42;;;;;;;31.50;16.67;;;-4.20;99.90;;;;;;5039082;28;20029;-86
2021/12/24 11:36:12;;;;;;;33.72;16.88;;;-4.00;99.50;;;;;;5021018;28;20038;-88
2021/12/24 11:38:41;;;;;;;39.78;18.90;;;-3.90;99.90;;;;;;5020377;28;20164;-87
2021/12/24 11:41:13;;;;;;;36.72;18.75;;;-3.70;98.10;;;;;;5021467;28;20528;-90
2021/12/24 11:43:41;;;;;;;48.05;22.23;;;-3.70;96.30;;;;;;5024329;28;20038;-89
2021/12/24 11:46:12;;;;;;;36.65;17.75;;;-3.70;95.50;;;;;;5022098;28;20033;-89
2021/12/24 11:48:38;;;;;;;35.42;17.08;;;-3.70;94.70;;;;;;5038158;28;20040;-88
2021/12/24 11:51:33;;;;;;;31.95;14.68;;;-3.90;94.50;;;;;;5039647;28;20104;-87
2021/12/24 11:54:06;;;;;;;47.88;19.30;;;-4.00;95.00;;;;;;5037551;28;20037;-87
2021/12/24 11:56:47;;;;;;;32.38;15.50;;;-4.10;95.00;;;;;;5020908;28;20034;-88
2021/12/24 11:59:13;;;;;;;28.25;13.77;;;-4.10;95.90;;;;;;5039198;28;20037;-88
2021/12/24 12:01:42;;;;;;;42.13;17.27;;;-4.20;96.10;;;;;;5038963;28;20072;-87
2021/12/24 12:04:30;;;;;;;40.47;16.27;;;-4.10;96.00;;;;;;5020734;28;20037;-87
2021/12/24 12:07:17;;;;;;;38.95;15.82;;;-4.20;95.80;;;;;;5038486;28;20042;-86
2021/12/24 12:09:45;;;;;;;26.05;12.52;;;-4.10;95.80;;;;;;5020391;28;20107;-87
2021/12/24 12:12:14;;;;;;;20.70;11.45;;;-4.20;96.30;;;;;;5021675;28;20029;-87
2021/12/24 12:14:41;;;;;;;29.55;13.45;;;-4.20;96.80;;;;;;5021678;28;20075;-88
2021/12/24 12:17:08;;;;;;;33.78;16.83;;;-4.20;96.90;;;;;;5021630;28;20033;-87
2021/12/24 12:22:18;;;;;;;28.75;14.30;;;-4.20;95.80;;;;;;5046537;28;20079;-89
2021/12/24 12:24:57;;;;;;;33.13;14.25;;;-4.20;96.90;;;;;;5024418;28;20033;-89
2021/12/24 12:27:36;;;;;;;35.33;16.75;;;-4.20;96.80;;;;;;5039089;28;20036;-88
2021/12/24 12:30:18;;;;;;;31.17;15.90;;;-4.20;96.70;;;;;;5037455;28;20423;-89
2021/12/24 12:32:44;;;;;;;33.35;14.20;;;-4.20;96.70;;;;;;5020153;28;20494;-88
2021/12/24 12:35:11;;;;;;;40.63;17.70;;;-4.20;96.60;;;;;;5037749;28;20030;-88
2021/12/24 12:37:48;;;;;;;59.92;22.42;;;-4.20;96.80;;;;;;5038751;28;20053;-88
2021/12/24 12:40:16;;;;;;;43.13;18.98;;;-4.20;97.00;;;;;;5037013;28;20076;-87
2021/12/24 12:42:48;;;;;;;48.17;19.00;;;-4.20;97.20;;;;;;5000555;28;20144;-87
2021/12/24 12:45:14;;;;;;;33.50;14.40;;;-4.20;97.20;;;;;;4999866;28;20088;-86
2021/12/24 12:47:55;;;;;;;33.05;14.77;;;-4.20;97.30;;;;;;5001084;28;20061;-87
2021/12/24 12:50:22;;;;;;;28.50;13.75;;;-4.20;97.10;;;;;;5005455;28;20046;-89
2021/12/24 12:52:48;;;;;;;33.33;16.55;;;-4.20;97.30;;;;;;5002966;28;20038;-88
2021/12/24 12:55:40;;;;;;;42.72;18.42;;;-4.20;97.60;;;;;;5017812;28;20036;-88
2021/12/24 12:58:24;;;;;;;52.60;24.80;;;-4.20;97.60;;;;;;4995596;28;20037;-88
2021/12/24 13:01:17;;;;;;;39.25;18.17;;;-4.20;97.70;;;;;;5017501;28;20034;-87
2021/12/24 13:03:58;;;;;;;37.28;17.23;;;-4.20;97.80;;;;;;4999939;28;20034;-89
2021/12/24 13:06:36;;;;;;;41.08;19.15;;;-4.20;97.60;;;;;;5001240;28;20053;-88
2021/12/24 13:09:04;;;;;;;32.47;15.38;;;-4.20;97.80;;;;;;5018938;28;20038;-87
2021/12/24 13:11:41;;;;;;;29.40;14.27;;;-4.10;97.90;;;;;;5018123;28;20034;-89
2021/12/24 13:14:09;;;;;;;32.28;15.40;;;-4.20;97.90;;;;;;5001450;28;20037;-89
2021/12/24 13:16:49;;;;;;;29.60;14.73;;;-4.20;98.00;;;;;;5000601;28;20109;-89
2021/12/24 13:24:55;;;;;;;22.60;11.88;;;-4.20;98.60;;;;;;5020878;28;20388;-88
2021/12/24 13:27:24;;;;;;;21.20;11.57;;;-4.20;98.80;;;;;;5007041;28;20033;-89
2021/12/24 13:30:13;;;;;;;26.30;12.05;;;-4.20;99.00;;;;;;5003688;28;20069;-89
2021/12/24 13:32:44;;;;;;;25.77;12.23;;;-4.20;99.20;;;;;;5000886;28;20538;-87
2021/12/24 13:35:12;;;;;;;25.75;11.88;;;-4.20;99.40;;;;;;5016280;28;20065;-88
2021/12/24 13:37:39;;;;;;;27.80;12.18;;;-4.10;99.50;;;;;;5016451;28;20084;-88
2021/12/24 13:40:11;;;;;;;27.17;11.98;;;-4.10;99.60;;;;;;5021218;28;20041;-87
2021/12/24 13:42:49;;;;;;;25.88;12.15;;;-4.10;99.70;;;;;;5000001;28;20045;-87
2021/12/24 13:45:16;;;;;;;23.48;11.80;;;-4.10;99.80;;;;;;5016636;28;20464;-87
2021/12/24 13:55:41;;;;;;;26.70;12.70;;;-4.00;99.90;;;;;;5017756;28;20060;-90
2021/12/24 13:58:13;;;;;;;22.23;10.68;;;-4.00;99.90;;;;;;4998698;28;20472;-88
2021/12/24 14:00:48;;;;;;;23.20;11.10;;;-4.00;99.90;;;;;;5016433;28;20033;-88
2021/12/24 14:03:24;;;;;;;23.98;11.88;;;-4.00;99.90;;;;;;5016653;28;20037;-89
2021/12/24 14:05:52;;;;;;;20.38;11.00;;;-4.00;99.90;;;;;;5016466;28;20026;-90
2021/12/24 14:08:21;;;;;;;25.48;12.65;;;-4.00;99.90;;;;;;5015905;28;20038;-87
2021/12/24 14:11:10;;;;;;;30.98;13.93;;;-4.00;99.90;;;;;;5002550;28;20056;-86
2021/12/24 14:13:42;;;;;;;22.33;11.68;;;-4.00;99.90;;;;;;4992310;28;20034;-88
2021/12/24 14:23:29;;;;;;;20.75;10.55;;;-3.90;99.90;;;;;;5016361;28;20045;-87
2021/12/24 14:25:57;;;;;;;17.67;8.75;;;-3.90;99.90;;;;;;5011587;28;20117;-87
2021/12/24 14:28:24;;;;;;;20.30;9.77;;;-3.50;99.90;;;;;;4978538;28;20126;-88
2021/12/24 14:30:59;;;;;;;25.20;10.65;;;-3.80;99.90;;;;;;4997650;28;20043;-87
2021/12/24 14:33:25;;;;;;;29.25;14.15;;;-3.80;99.90;;;;;;4980215;28;20046;-86
2021/12/24 14:35:52;;;;;;;25.10;11.73;;;-3.80;99.90;;;;;;4987451;28;20034;-91
2021/12/24 14:38:24;;;;;;;21.27;11.05;;;-3.70;99.90;;;;;;5003551;28;20030;-90